createdAt,value
2019-03-18T00:02:05.567Z,83.40
2019-03-18T00:04:35.892Z,84.10
2019-03-18T00:07:06.693Z,84.20
2019-03-18T00:09:37.387Z,85.10
2019-03-18T00:12:08.037Z,85.00
2019-03-18T00:15:01.394Z,85.70
2019-03-18T00:17:30.795Z,86.80
2019-03-18T00:20:01.145Z,87.20
2019-03-18T00:22:31.577Z,86.20
2019-03-18T00:25:02.093Z,85.20
2019-03-18T00:27:32.731Z,86.10
2019-03-18T00:30:16.418Z,86.60
2019-03-18T00:32:47.101Z,86.60
2019-03-18T00:35:17.729Z,86.80
2019-03-18T00:37:48.085Z,87.10
2019-03-18T00:40:20.468Z,87.20
2019-03-18T00:42:51.062Z,88.20
2019-03-18T00:45:21.789Z,87.70
2019-03-18T00:47:52.395Z,87.50
2019-03-18T00:50:22.720Z,88.30
2019-03-18T00:52:53.139Z,88.30
2019-03-18T00:55:24.519Z,88.60
2019-03-18T00:57:55.219Z,88.70
2019-03-18T01:00:25.593Z,87.80
2019-03-18T01:02:56.383Z,88.50
2019-03-18T01:05:26.801Z,88.60
2019-03-18T01:07:57.182Z,89.10
2019-03-18T01:10:27.836Z,89.80
2019-03-18T01:12:58.433Z,88.60
2019-03-18T01:15:29.150Z,88.60
2019-03-18T01:17:59.494Z,89.00
2019-03-18T01:20:30.379Z,89.00
2019-03-18T01:23:00.774Z,89.00
2019-03-18T01:25:31.136Z,89.20
2019-03-18T01:28:01.866Z,89.00
2019-03-18T01:30:32.224Z,89.80
2019-03-18T01:33:02.690Z,89.70
2019-03-18T01:35:33.579Z,90.00
2019-03-18T01:38:03.979Z,89.00
2019-03-18T01:40:34.789Z,89.00
2019-03-18T01:43:05.260Z,88.00
2019-03-18T01:45:41.035Z,88.00
2019-03-18T01:48:08.355Z,88.00
2019-03-18T01:50:38.675Z,87.80
2019-03-18T01:53:13.248Z,87.40
2019-03-18T01:55:43.593Z,87.10
2019-03-18T01:58:14.206Z,86.60
2019-03-18T02:00:44.838Z,85.90
2019-03-18T02:03:15.866Z,85.80
2019-03-18T02:05:46.878Z,85.40
2019-03-18T02:08:17.322Z,84.70
2019-03-18T02:10:47.965Z,84.60
2019-03-18T02:13:18.723Z,84.60
2019-03-18T02:15:53.523Z,85.80
2019-03-18T02:18:21.932Z,86.20
2019-03-18T02:20:52.619Z,86.00
2019-03-18T02:23:23.408Z,85.90
2019-03-18T02:25:53.720Z,85.10
2019-03-18T02:28:24.150Z,85.40
2019-03-18T02:30:55.681Z,85.50
2019-03-18T02:33:26.391Z,85.20
2019-03-18T02:35:56.714Z,85.00
2019-03-18T02:38:27.446Z,85.90
2019-03-18T02:40:57.793Z,84.80
2019-03-18T02:43:28.109Z,84.50
2019-03-18T02:46:09.853Z,84.50
2019-03-18T02:48:30.584Z,84.50
2019-03-18T02:51:01.098Z,83.60
2019-03-18T02:53:31.807Z,84.00
2019-03-18T02:56:02.129Z,83.50
2019-03-18T02:58:32.481Z,84.40
2019-03-18T03:01:03.199Z,84.50
2019-03-18T03:03:36.795Z,84.30
2019-03-18T03:06:06.317Z,85.80
2019-03-18T03:08:36.692Z,84.30
2019-03-18T03:11:07.090Z,84.30
2019-03-18T03:13:38.030Z,84.30
2019-03-18T03:16:08.393Z,84.30
2019-03-18T03:18:38.738Z,84.40
2019-03-18T03:21:09.058Z,84.40
2019-03-18T03:23:40.115Z,84.40
2019-03-18T03:26:10.735Z,83.20
2019-03-18T03:28:41.055Z,83.40
2019-03-18T03:31:11.785Z,83.20
2019-03-18T03:33:42.701Z,84.30
2019-03-18T03:36:13.017Z,84.90
2019-03-18T03:38:43.769Z,85.20
2019-03-18T03:41:17.630Z,84.30
2019-03-18T03:43:46.503Z,84.30
2019-03-18T03:46:16.884Z,84.80
2019-03-18T03:48:47.237Z,84.40
2019-03-18T03:51:18.169Z,85.20
2019-03-18T03:54:08.306Z,86.50
2019-03-18T03:56:39.090Z,87.50
2019-03-18T03:59:09.823Z,88.10
2019-03-18T04:01:40.169Z,87.80
2019-03-18T04:04:10.781Z,87.60
2019-03-18T04:06:41.490Z,87.60
2019-03-18T04:09:11.958Z,87.20
2019-03-18T04:11:43.001Z,87.20
2019-03-18T04:14:13.701Z,88.00
2019-03-18T04:17:00.573Z,88.40
2019-03-18T04:19:16.723Z,87.70
2019-03-18T04:21:50.366Z,88.10
2019-03-18T04:24:19.183Z,88.10
2019-03-18T04:26:50.190Z,89.00
2019-03-18T04:29:22.182Z,89.70
2019-03-18T04:31:52.858Z,89.90
2019-03-18T04:34:23.479Z,89.20
2019-03-18T04:36:53.834Z,88.80
2019-03-18T04:39:24.757Z,88.90
2019-03-18T04:41:55.103Z,88.50
2019-03-18T04:44:25.699Z,88.20
2019-03-18T04:46:56.329Z,88.20
2019-03-18T04:49:26.680Z,88.70
2019-03-18T04:51:57.410Z,89.10
2019-03-18T04:54:28.063Z,89.00
2019-03-18T04:56:58.652Z,88.70
2019-03-18T04:59:41.761Z,88.50
2019-03-18T05:02:12.249Z,88.50
2019-03-18T05:04:42.942Z,88.00
2019-03-18T05:07:13.680Z,87.70
2019-03-18T05:09:44.005Z,86.70
2019-03-18T05:12:15.202Z,87.60
2019-03-18T05:14:45.641Z,85.90
2019-03-18T05:17:26.167Z,85.30
2019-03-18T05:19:47.971Z,84.70
2019-03-18T05:22:18.319Z,84.70
2019-03-18T05:24:48.975Z,82.80
2019-03-18T05:27:19.937Z,82.80
2019-03-18T05:29:51.032Z,83.30
2019-03-18T05:32:22.099Z,82.10
2019-03-18T05:34:52.858Z,81.00
2019-03-18T05:37:23.691Z,81.20
2019-03-18T05:39:56.142Z,79.90
2019-03-18T05:42:26.883Z,79.40
2019-03-18T05:44:57.321Z,78.50
2019-03-18T05:47:38.791Z,78.50
2019-03-18T05:50:00.119Z,77.60
2019-03-18T05:52:30.851Z,76.70
2019-03-18T05:55:01.219Z,78.30
2019-03-18T05:57:31.558Z,77.10
2019-03-18T06:00:02.371Z,77.80
2019-03-18T06:02:32.714Z,77.30
2019-03-18T06:05:03.130Z,77.70
2019-03-18T06:07:33.498Z,75.90
2019-03-18T06:10:06.175Z,75.90
2019-03-18T06:12:36.850Z,76.20
2019-03-18T06:15:11.895Z,76.60
2019-03-18T06:17:52.282Z,76.30
2019-03-18T06:20:15.323Z,76.00
2019-03-18T06:22:46.321Z,75.50
2019-03-18T06:25:16.650Z,75.40
2019-03-18T06:27:47.001Z,75.60
2019-03-18T06:30:18.549Z,75.40
2019-03-18T06:32:48.899Z,73.30
2019-03-18T06:35:20.617Z,73.60
2019-03-18T06:37:51.135Z,71.60
2019-03-18T06:40:21.794Z,70.10
2019-03-18T06:42:52.634Z,70.60
2019-03-18T06:45:23.277Z,69.50
2019-03-18T06:48:04.336Z,69.50
2019-03-18T06:50:26.310Z,68.60
2019-03-18T06:52:56.672Z,68.70
2019-03-18T06:55:27.452Z,67.80
2019-03-18T06:57:59.702Z,66.90
2019-03-18T07:00:30.481Z,66.90
2019-03-18T07:03:00.829Z,67.60
2019-03-18T07:05:31.982Z,67.00
2019-03-18T07:08:02.391Z,65.20
2019-03-18T07:10:33.128Z,64.00
2019-03-18T07:13:03.833Z,62.20
2019-03-18T07:15:34.545Z,62.00
2019-03-18T07:18:17.251Z,62.30
2019-03-18T07:20:37.363Z,62.30
2019-03-18T07:23:08.114Z,61.30
2019-03-18T07:25:38.767Z,59.80
2019-03-18T07:28:09.486Z,60.50
2019-03-18T07:30:39.980Z,58.10
2019-03-18T07:33:10.337Z,58.10
2019-03-18T07:35:41.412Z,57.30
2019-03-18T07:38:12.426Z,57.30
2019-03-18T07:40:49.339Z,56.00
2019-03-18T07:43:15.156Z,57.70
2019-03-18T07:45:46.198Z,56.60
2019-03-18T07:48:16.898Z,58.30
2019-03-18T07:50:47.567Z,56.40
2019-03-18T07:53:18.416Z,58.30
2019-03-18T07:55:49.117Z,57.60
2019-03-18T07:58:22.285Z,57.00
2019-03-18T08:00:52.413Z,56.70
2019-03-18T08:03:23.288Z,56.60
2019-03-18T08:05:54.005Z,57.80
2019-03-18T08:08:24.476Z,56.80
2019-03-18T08:10:55.242Z,56.20
2019-03-18T08:13:26.325Z,54.20
2019-03-18T08:15:57.062Z,55.00
2019-03-18T08:18:27.406Z,54.30
2019-03-18T08:20:57.741Z,54.30
2019-03-18T08:23:28.083Z,53.60
2019-03-18T08:25:58.575Z,54.10
2019-03-18T08:28:29.291Z,54.50
2019-03-18T08:31:00.125Z,54.20
2019-03-18T08:33:30.825Z,54.20
2019-03-18T08:36:01.457Z,54.50
2019-03-18T08:38:31.799Z,54.00
2019-03-18T08:41:02.470Z,54.30
2019-03-18T08:43:32.821Z,54.30
2019-03-18T08:46:03.635Z,54.40
2019-03-18T08:48:34.354Z,53.30
2019-03-18T08:51:04.703Z,53.30
2019-03-18T08:53:35.051Z,53.30
2019-03-18T08:56:05.402Z,53.50
2019-03-18T08:58:36.194Z,52.70
2019-03-18T09:01:06.921Z,52.20
2019-03-18T09:03:37.248Z,52.90
2019-03-18T09:06:07.861Z,51.70
2019-03-18T09:08:39.127Z,51.50
2019-03-18T09:11:09.453Z,50.50
2019-03-18T09:13:39.808Z,50.90
2019-03-18T09:16:10.914Z,50.90
2019-03-18T09:18:41.559Z,50.30
2019-03-18T09:21:12.191Z,50.30
2019-03-18T09:23:42.836Z,50.60
2019-03-18T09:26:13.199Z,50.10
2019-03-18T09:28:44.377Z,50.40
2019-03-18T09:31:14.903Z,50.00
2019-03-18T09:33:45.218Z,50.20
2019-03-18T09:36:15.916Z,51.50
2019-03-18T09:38:46.290Z,50.70
2019-03-18T09:41:17.026Z,50.10
2019-03-18T09:43:47.546Z,49.00
2019-03-18T09:46:18.340Z,48.50
2019-03-18T09:48:48.692Z,49.30
2019-03-18T09:51:19.401Z,48.10
2019-03-18T09:53:50.060Z,47.60
2019-03-18T09:56:21.063Z,45.40
2019-03-18T09:58:51.710Z,46.30
2019-03-18T10:01:22.091Z,45.50
2019-03-18T10:03:53.185Z,44.20
2019-03-18T10:06:24.000Z,44.20
2019-03-18T10:08:54.781Z,45.00
2019-03-18T10:11:25.435Z,45.70
2019-03-18T10:13:56.333Z,46.50
2019-03-18T10:16:27.022Z,46.50
2019-03-18T10:18:57.701Z,47.60
2019-03-18T10:21:28.029Z,47.10
2019-03-18T10:23:58.420Z,46.30
2019-03-18T10:26:29.498Z,46.60
2019-03-18T10:29:00.207Z,46.40
2019-03-18T10:31:30.866Z,46.80
2019-03-18T10:34:20.928Z,47.10
2019-03-18T10:36:51.571Z,47.20
2019-03-18T10:39:22.637Z,47.60
2019-03-18T10:41:53.153Z,47.40
2019-03-18T10:44:23.949Z,46.70
2019-03-18T10:46:54.278Z,47.10
2019-03-18T10:49:24.634Z,47.10
2019-03-18T10:51:55.078Z,47.00
2019-03-18T10:54:30.718Z,47.00
2019-03-18T10:56:57.633Z,46.50
2019-03-18T10:59:28.394Z,45.00
2019-03-18T11:01:59.282Z,45.20
2019-03-18T11:04:30.098Z,44.60
2019-03-18T11:07:00.865Z,44.10
2019-03-18T11:09:31.868Z,45.50
2019-03-18T11:12:02.376Z,42.90
2019-03-18T11:14:52.943Z,42.90
2019-03-18T11:17:23.765Z,42.10
2019-03-18T11:19:58.632Z,42.50
2019-03-18T11:22:26.459Z,42.10
2019-03-18T11:24:57.298Z,41.00
2019-03-18T11:27:27.661Z,41.10
2019-03-18T11:29:58.018Z,39.40
2019-03-18T11:32:29.091Z,39.50
2019-03-18T11:34:59.651Z,40.00
2019-03-18T11:37:30.013Z,39.20
2019-03-18T11:40:01.813Z,38.20
2019-03-18T11:42:32.721Z,38.30
2019-03-18T11:45:04.113Z,38.00
2019-03-18T11:47:34.737Z,37.80
2019-03-18T11:50:14.950Z,38.60
2019-03-18T11:52:45.415Z,37.60
2019-03-18T11:55:26.631Z,37.50
2019-03-18T11:57:57.406Z,36.70
2019-03-18T12:00:28.164Z,37.30
2019-03-18T12:02:59.017Z,36.10
2019-03-18T12:05:30.159Z,35.30
2019-03-18T12:08:00.795Z,34.00
2019-03-18T12:10:31.250Z,36.10
2019-03-18T12:13:02.489Z,35.90
2019-03-18T12:15:36.245Z,37.30
2019-03-18T12:18:05.996Z,37.50
2019-03-18T12:20:37.158Z,37.40
2019-03-18T12:23:07.520Z,37.50
2019-03-18T12:25:37.899Z,36.50
2019-03-18T12:28:08.630Z,36.30
2019-03-18T12:30:38.980Z,35.30
2019-03-18T12:33:10.103Z,34.60
2019-03-18T12:35:40.829Z,34.40
2019-03-18T12:38:11.461Z,33.70
2019-03-18T12:40:42.106Z,35.80
2019-03-18T12:43:12.809Z,37.40
2019-03-18T12:45:43.156Z,39.80
2019-03-18T12:48:13.880Z,43.30
2019-03-18T12:50:57.277Z,45.00
2019-03-18T12:53:27.639Z,44.70
2019-03-18T12:55:58.281Z,41.60
2019-03-18T12:58:28.934Z,40.20
2019-03-18T13:01:11.816Z,38.20
2019-03-18T13:03:32.257Z,37.10
2019-03-18T13:06:03.436Z,38.40
2019-03-18T13:08:34.203Z,38.20
2019-03-18T13:11:04.539Z,38.00
2019-03-18T13:13:35.237Z,39.00
2019-03-18T13:16:05.935Z,41.30
2019-03-18T13:18:36.563Z,43.40
2019-03-18T13:21:08.390Z,46.10
2019-03-18T13:23:39.109Z,52.10
2019-03-18T13:26:09.449Z,53.10
2019-03-18T13:28:39.812Z,53.40
2019-03-18T13:31:10.553Z,52.20
2019-03-18T13:33:41.798Z,54.00
2019-03-18T13:36:12.611Z,52.10
2019-03-18T13:38:43.315Z,51.40
2019-03-18T13:41:13.662Z,49.60
2019-03-18T13:43:44.019Z,47.40
2019-03-18T13:46:14.663Z,48.50
2019-03-18T13:48:45.713Z,44.00
2019-03-18T13:51:20.727Z,41.50
2019-03-18T13:53:48.515Z,39.60
2019-03-18T13:56:20.324Z,38.90
2019-03-18T13:58:51.025Z,37.60
2019-03-18T14:01:21.402Z,39.00
2019-03-18T14:03:52.133Z,37.40
2019-03-18T14:06:23.213Z,37.40
2019-03-18T14:08:54.255Z,37.20
2019-03-18T14:11:24.966Z,40.60
2019-03-18T14:13:55.650Z,41.30
2019-03-18T14:16:26.326Z,39.00
2019-03-18T14:18:57.307Z,39.00
2019-03-18T14:21:33.311Z,40.00
2019-03-18T14:24:00.728Z,41.00
2019-03-18T14:26:31.446Z,41.30
2019-03-18T14:29:01.807Z,42.70
2019-03-18T14:31:32.547Z,43.70
2019-03-18T14:34:02.857Z,44.00
2019-03-18T14:36:33.784Z,42.90
2019-03-18T14:39:06.071Z,42.80
2019-03-18T14:41:36.443Z,43.40
2019-03-18T14:44:07.479Z,43.00
2019-03-18T14:46:37.916Z,43.40
2019-03-18T14:49:08.277Z,43.00
2019-03-18T14:51:45.767Z,43.00
2019-03-18T14:54:11.539Z,42.60
2019-03-18T14:56:42.550Z,42.60
2019-03-18T14:59:13.195Z,42.60
2019-03-18T15:01:44.102Z,42.60
2019-03-18T15:04:14.459Z,43.80
2019-03-18T15:06:45.361Z,43.30
2019-03-18T15:09:15.868Z,43.60
2019-03-18T15:11:46.349Z,43.70
2019-03-18T15:14:17.074Z,42.70
2019-03-18T15:16:48.883Z,39.80
2019-03-18T15:19:19.230Z,39.80
2019-03-18T15:21:58.387Z,39.40
2019-03-18T15:24:22.057Z,39.70
2019-03-18T15:26:53.639Z,39.10
2019-03-18T15:29:23.994Z,39.70
2019-03-18T15:31:54.680Z,40.00
2019-03-18T15:34:25.039Z,42.60
2019-03-18T15:36:55.741Z,44.20
2019-03-18T15:39:26.155Z,46.80
2019-03-18T15:41:56.906Z,49.10
2019-03-18T15:44:27.245Z,51.40
2019-03-18T15:46:57.980Z,52.90
2019-03-18T15:49:28.331Z,55.30
2019-03-18T15:52:10.415Z,59.90
2019-03-18T15:54:31.173Z,63.50
2019-03-18T15:57:01.498Z,60.60
2019-03-18T15:59:32.134Z,61.00
2019-03-18T16:02:03.220Z,61.90
2019-03-18T16:04:33.892Z,61.60
2019-03-18T16:07:04.787Z,61.30
2019-03-18T16:09:35.468Z,60.20
2019-03-18T16:12:05.814Z,61.20
2019-03-18T16:14:36.164Z,60.80
2019-03-18T16:17:06.524Z,60.90
2019-03-18T16:19:36.854Z,60.30
2019-03-18T16:22:07.477Z,61.00
2019-03-18T16:24:37.898Z,62.70
2019-03-18T16:27:08.561Z,61.80
2019-03-18T16:29:39.173Z,62.90
2019-03-18T16:32:11.680Z,63.30
2019-03-18T16:34:41.858Z,62.80
2019-03-18T16:37:12.194Z,62.10
2019-03-18T16:39:43.675Z,62.70
2019-03-18T16:42:14.369Z,62.40
2019-03-18T16:44:44.739Z,63.30
2019-03-18T16:47:15.505Z,63.60
2019-03-18T16:49:45.853Z,62.80
2019-03-18T16:52:16.221Z,61.50
2019-03-18T16:54:46.893Z,61.90
2019-03-18T16:57:37.052Z,61.60
2019-03-18T17:00:20.495Z,60.00
2019-03-18T17:02:51.084Z,59.30
2019-03-18T17:05:23.683Z,59.20
2019-03-18T17:07:54.656Z,59.90
2019-03-18T17:10:25.416Z,60.10
2019-03-18T17:12:56.142Z,59.90
2019-03-18T17:15:26.931Z,60.40
2019-03-18T17:17:57.558Z,60.40
2019-03-18T17:20:28.150Z,61.80
2019-03-18T17:23:04.501Z,62.40
2019-03-18T17:25:35.542Z,63.30
2019-03-18T17:28:06.255Z,64.50
2019-03-18T17:30:36.892Z,63.40
2019-03-18T17:33:07.512Z,64.30
2019-03-18T17:35:38.259Z,67.10
2019-03-18T17:38:09.097Z,69.50
2019-03-18T17:40:39.448Z,71.00
2019-03-18T17:43:10.339Z,71.90
2019-03-18T17:45:40.743Z,67.00
2019-03-18T17:48:11.423Z,66.60
2019-03-18T17:50:42.365Z,67.60
2019-03-18T17:53:12.744Z,68.80
2019-03-18T17:55:43.073Z,64.00
2019-03-18T17:58:14.061Z,63.80
2019-03-18T18:00:54.095Z,62.20
2019-03-18T18:03:24.786Z,62.30
2019-03-18T18:05:55.156Z,62.60
2019-03-18T18:08:26.226Z,63.30
2019-03-18T18:10:56.573Z,65.90
2019-03-18T18:13:26.938Z,67.20
2019-03-18T18:15:57.645Z,69.10
2019-03-18T18:18:28.322Z,70.90
2019-03-18T18:20:58.973Z,73.70
2019-03-18T18:23:29.611Z,75.90
2019-03-18T18:26:02.220Z,78.20
2019-03-18T18:28:32.569Z,79.10
2019-03-18T18:31:03.302Z,81.40
2019-03-18T18:33:34.015Z,81.10
2019-03-18T18:36:04.717Z,79.90
2019-03-18T18:38:35.095Z,79.10
2019-03-18T18:41:06.086Z,78.80
2019-03-18T18:43:37.453Z,77.50
2019-03-18T18:46:07.930Z,77.10
2019-03-18T18:48:38.786Z,75.60
2019-03-18T18:51:09.131Z,74.70
2019-03-18T18:53:39.537Z,73.60
2019-03-18T18:56:29.268Z,73.50
2019-03-18T18:58:59.635Z,73.80
2019-03-18T19:01:29.973Z,73.80
2019-03-18T19:04:01.139Z,75.10
2019-03-18T19:06:31.554Z,74.70
2019-03-18T19:09:01.913Z,73.80
2019-03-18T19:11:32.846Z,73.80
2019-03-18T19:14:04.816Z,73.80
2019-03-18T19:16:35.168Z,74.00
2019-03-18T19:19:05.780Z,73.90
2019-03-18T19:21:36.177Z,74.50
2019-03-18T19:24:06.873Z,73.50
2019-03-18T19:26:38.189Z,73.30
2019-03-18T19:29:08.554Z,73.20
2019-03-18T19:31:39.264Z,73.50
2019-03-18T19:34:09.870Z,73.50
2019-03-18T19:36:40.283Z,72.60
2019-03-18T19:39:15.745Z,73.00
2019-03-18T19:41:46.343Z,73.60
2019-03-18T19:44:17.006Z,72.70
2019-03-18T19:46:47.355Z,73.70
2019-03-18T19:49:17.710Z,73.80
2019-03-18T19:51:48.816Z,74.50
2019-03-18T19:54:19.152Z,75.50
2019-03-18T19:56:49.744Z,75.20
2019-03-18T19:59:22.588Z,75.00
2019-03-18T20:01:52.531Z,75.20
2019-03-18T20:04:23.242Z,75.30
2019-03-18T20:06:54.990Z,75.50
2019-03-18T20:09:25.616Z,75.30
2019-03-18T20:11:56.456Z,75.90
2019-03-18T20:14:26.809Z,76.40
2019-03-18T20:16:57.494Z,76.20
2019-03-18T20:19:27.851Z,76.60
2019-03-18T20:21:58.753Z,75.30
2019-03-18T20:24:29.108Z,75.30
2019-03-18T20:27:00.039Z,75.30
2019-03-18T20:29:30.784Z,76.10
2019-03-18T20:32:01.406Z,76.30
2019-03-18T20:34:31.754Z,76.40
2019-03-18T20:37:02.448Z,76.20
2019-03-18T20:39:33.152Z,76.30
2019-03-18T20:42:03.508Z,76.20
2019-03-18T20:44:34.328Z,76.80
2019-03-18T20:47:05.039Z,77.70
2019-03-18T20:49:35.382Z,79.10
2019-03-18T20:52:16.252Z,79.90
2019-03-18T20:54:37.863Z,80.60
2019-03-18T20:57:08.495Z,81.30
2019-03-18T20:59:38.850Z,81.00
2019-03-18T21:02:09.674Z,81.70
2019-03-18T21:04:40.008Z,81.20
2019-03-18T21:07:10.415Z,81.40
2019-03-18T21:09:41.179Z,81.90
2019-03-18T21:12:11.528Z,80.70
2019-03-18T21:14:42.078Z,81.30
2019-03-18T21:17:13.155Z,81.00
2019-03-18T21:19:43.525Z,80.70
2019-03-18T21:22:13.985Z,79.90
2019-03-18T21:24:44.580Z,79.50
2019-03-18T21:27:14.906Z,79.00
2019-03-18T21:29:45.300Z,78.50
2019-03-18T21:32:15.622Z,78.70
2019-03-18T21:35:07.341Z,79.40
2019-03-18T21:37:38.054Z,79.30
2019-03-18T21:40:19.477Z,80.10
2019-03-18T21:42:50.236Z,80.50
2019-03-18T21:45:23.452Z,80.50
2019-03-18T21:47:54.156Z,81.50
2019-03-18T21:50:24.541Z,82.10
2019-03-18T21:52:55.219Z,82.70
2019-03-18T21:55:26.028Z,83.40
2019-03-18T21:57:56.688Z,83.40
2019-03-18T22:00:27.819Z,83.40
2019-03-18T22:02:58.189Z,82.80
2019-03-18T22:05:28.529Z,82.50
2019-03-18T22:07:58.889Z,80.90
2019-03-18T22:10:29.387Z,80.60
2019-03-18T22:12:59.708Z,80.40
2019-03-18T22:15:30.487Z,79.10
2019-03-18T22:18:01.245Z,78.60
2019-03-18T22:20:31.862Z,78.70
2019-03-18T22:23:02.301Z,78.10
2019-03-18T22:25:34.645Z,78.80
2019-03-18T22:28:05.125Z,77.70
2019-03-18T22:30:35.736Z,77.80
2019-03-18T22:33:06.093Z,77.50
2019-03-18T22:35:36.425Z,77.60
2019-03-18T22:38:07.139Z,78.00
2019-03-18T22:40:37.533Z,77.20
2019-03-18T22:43:07.898Z,76.70
2019-03-18T22:45:38.250Z,76.80
2019-03-18T22:48:08.606Z,77.00
2019-03-18T22:50:38.964Z,78.60
2019-03-18T22:53:09.613Z,78.00
2019-03-18T22:55:40.266Z,78.80
2019-03-18T22:58:10.586Z,79.60
2019-03-18T23:00:43.033Z,79.70
2019-03-18T23:03:13.383Z,79.50
2019-03-18T23:05:44.217Z,79.10
2019-03-18T23:08:14.800Z,79.70
2019-03-18T23:10:45.560Z,80.10
2019-03-18T23:13:15.889Z,80.10
2019-03-18T23:15:46.240Z,80.10
2019-03-18T23:18:16.588Z,79.00
2019-03-18T23:20:47.269Z,79.10
2019-03-18T23:23:17.624Z,78.20
2019-03-18T23:25:48.033Z,79.00
2019-03-18T23:28:18.378Z,78.90
2019-03-18T23:31:08.146Z,78.90
2019-03-18T23:33:38.483Z,77.70
2019-03-18T23:36:08.836Z,77.10
2019-03-18T23:38:39.836Z,76.20
2019-03-18T23:41:10.179Z,76.20
2019-03-18T23:43:40.903Z,76.20
2019-03-18T23:46:11.312Z,76.10
2019-03-18T23:48:41.665Z,74.80
2019-03-18T23:51:12.384Z,75.00
2019-03-18T23:53:44.318Z,75.40
2019-03-18T23:56:14.678Z,75.40
2019-03-18T23:58:45.000Z,76.10
